Time;durP1;ratioP1;P1;durP2;ratioP2;P2;SDS_P1;SDS_P2;PMS_P1;PMS_P2;Temp;Humidity;BMP_temperature;BMP_pressure;BME280_temperature;BME280_humidity;BME280_pressure;Samples;Min_cycle;Max_cycle;Signal;HPM_P1;HPM_P2
2022/08/04 00:01:23;;;;;;;1.80;1.70;;;;;;;20.18;100.00;96269.59;5031936;28;105964;-63
2022/08/04 00:03:55;;;;;;;1.70;1.60;;;;;;;20.02;100.00;96267.59;5030882;28;102312;-63
2022/08/04 00:06:39;;;;;;;3.93;2.40;;;;;;;19.62;100.00;96268.69;5028586;28;105462;-63
2022/08/04 00:09:14;;;;;;;2.13;1.80;;;;;;;19.25;100.00;96261.00;5030514;28;101722;-63
2022/08/04 00:11:45;;;;;;;1.87;1.70;;;;;;;19.44;100.00;96266.97;5030240;27;102274;-63
2022/08/04 00:14:15;;;;;;;2.00;1.80;;;;;;;19.47;100.00;96261.00;5028661;28;105421;-63
2022/08/04 00:16:48;;;;;;;2.50;1.90;;;;;;;19.41;100.00;96264.94;5028897;28;102009;-63
2022/08/04 00:19:18;;;;;;;2.13;1.87;;;;;;;19.23;100.00;96264.00;5030278;28;102534;-63
2022/08/04 00:21:53;;;;;;;1.80;1.60;;;;;;;19.08;100.00;96256.25;5028384;28;104224;-63
2022/08/04 00:24:22;;;;;;;2.20;1.73;;;;;;;19.03;100.00;96263.69;5033234;28;101835;-63
2022/08/04 00:26:52;;;;;;;2.10;1.87;;;;;;;19.05;100.00;96264.16;5028118;28;107946;-63
2022/08/04 00:29:19;;;;;;;2.10;1.83;;;;;;;18.99;100.00;96266.19;5030340;28;101936;-63
2022/08/04 00:31:46;;;;;;;1.50;1.50;;;;;;;18.85;100.00;96260.06;5029943;27;102839;-63
2022/08/04 00:34:14;;;;;;;2.40;1.80;;;;;;;18.68;100.00;96261.81;5028017;28;105135;-63
2022/08/04 00:36:44;;;;;;;2.27;1.73;;;;;;;19.05;100.00;96258.78;5028690;28;101977;-63
2022/08/04 00:39:17;;;;;;;1.67;1.57;;;;;;;19.06;100.00;96253.09;5028621;28;105746;-63
2022/08/04 00:41:53;;;;;;;4.93;1.90;;;;;;;19.04;100.00;96265.28;5029622;28;102603;-63
2022/08/04 00:44:30;;;;;;;1.70;1.60;;;;;;;19.17;100.00;96254.44;5032138;28;101846;-63
2022/08/04 00:47:11;;;;;;;1.90;1.80;;;;;;;18.99;100.00;96257.31;5029439;28;102629;-63
2022/08/04 00:50:05;;;;;;;2.80;1.87;;;;;;;19.04;100.00;96263.38;5029103;28;101812;-63
2022/08/04 00:52:42;;;;;;;2.50;1.70;;;;;;;18.96;100.00;96260.63;5028425;28;106388;-63
2022/08/04 00:55:37;;;;;;;1.80;1.70;;;;;;;18.93;100.00;96267.44;5029527;28;102814;-63
2022/08/04 00:58:27;;;;;;;1.90;1.80;;;;;;;19.07;100.00;96264.69;5028187;27;101999;-63
2022/08/04 01:01:00;;;;;;;1.70;1.60;;;;;;;19.18;100.00;96260.63;5026842;28;102849;-63
2022/08/04 01:03:51;;;;;;;1.97;1.80;;;;;;;19.06;100.00;96260.38;5029314;28;102553;-63
2022/08/04 01:06:33;;;;;;;3.20;1.90;;;;;;;19.08;100.00;96264.34;5030001;28;101755;-63
2022/08/04 01:09:13;;;;;;;1.83;1.73;;;;;;;18.99;100.00;96262.69;5032712;28;102515;-63
2022/08/04 01:11:54;;;;;;;2.87;1.90;;;;;;;19.16;100.00;96262.81;5029698;28;102230;-63
2022/08/04 01:14:35;;;;;;;1.90;1.80;;;;;;;19.15;100.00;96266.63;5029811;28;102977;-63
2022/08/04 01:17:20;;;;;;;1.83;1.73;;;;;;;19.04;100.00;96266.09;5029277;28;102614;-63
2022/08/04 01:20:01;;;;;;;1.83;1.70;;;;;;;19.07;100.00;96272.75;5029877;28;101867;-63
2022/08/04 01:23:25;;;;;;;2.00;1.90;;;;;;;18.71;100.00;96272.00;5029883;27;102342;-64
2022/08/04 01:26:32;;;;;;;2.10;1.90;;;;;;;18.67;100.00;96271.81;5030842;28;105566;-63
2022/08/04 01:29:09;;;;;;;4.23;1.90;;;;;;;18.62;100.00;96277.31;5031502;28;101779;-63
2022/08/04 01:31:58;;;;;;;1.90;1.80;;;;;;;18.76;100.00;96272.69;5033138;28;102559;-63
2022/08/04 01:34:29;;;;;;;2.03;1.93;;;;;;;18.63;100.00;96270.03;5032806;27;104124;-63
2022/08/04 01:37:00;;;;;;;2.03;1.80;;;;;;;18.79;100.00;96271.25;5031631;28;105510;-63
2022/08/04 01:39:45;;;;;;;2.20;1.70;;;;;;;18.86;100.00;96267.03;5032283;28;103146;-63
2022/08/04 01:42:13;;;;;;;2.50;1.70;;;;;;;18.93;100.00;96258.53;5031432;28;101904;-63
2022/08/04 01:44:43;;;;;;;3.30;1.60;;;;;;;18.81;100.00;96261.00;5031276;28;105148;-63
2022/08/04 01:47:10;;;;;;;2.33;2.13;;;;;;;18.60;100.00;96257.16;5032385;28;102645;-63
2022/08/04 01:49:39;;;;;;;1.80;1.70;;;;;;;18.35;100.00;96247.75;5032680;28;101829;-63
2022/08/04 01:52:09;;;;;;;2.63;1.80;;;;;;;18.27;100.00;96256.50;5032402;28;104448;-63
2022/08/04 01:54:41;;;;;;;1.83;1.70;;;;;;;18.54;100.00;96253.00;5030671;28;105402;-63
2022/08/04 01:57:10;;;;;;;1.87;1.77;;;;;;;18.44;100.00;96250.50;5034512;28;102058;-63
2022/08/04 01:59:38;;;;;;;2.10;2.00;;;;;;;17.97;100.00;96246.38;5031946;27;102590;-63
2022/08/04 02:02:07;;;;;;;2.10;2.00;;;;;;;18.02;100.00;96254.34;5031002;28;102188;-63
2022/08/04 02:04:36;;;;;;;3.03;2.00;;;;;;;18.34;100.00;96248.84;5032639;28;102278;-63
2022/08/04 02:07:17;;;;;;;2.70;1.83;;;;;;;18.39;100.00;96246.03;5030355;28;103885;-63
2022/08/04 02:09:52;;;;;;;1.97;1.77;;;;;;;18.20;100.00;96249.94;5032672;27;102042;-63
2022/08/04 02:12:27;;;;;;;2.00;1.90;;;;;;;17.93;100.00;96258.81;5030800;28;105356;-63
2022/08/04 02:15:00;;;;;;;3.90;1.93;;;;;;;17.91;100.00;96252.13;5031753;28;102619;-63
2022/08/04 02:17:36;;;;;;;2.13;1.97;;;;;;;17.92;100.00;96251.84;5030899;28;101804;-63
2022/08/04 02:20:08;;;;;;;1.90;1.80;;;;;;;18.11;100.00;96249.84;5035268;27;102366;-63
2022/08/04 02:22:41;;;;;;;2.03;1.93;;;;;;;18.05;100.00;96244.88;5030373;28;101993;-63
2022/08/04 02:25:11;;;;;;;2.23;1.77;;;;;;;17.91;100.00;96246.75;5030992;28;105581;-63
2022/08/04 02:28:12;;;;;;;2.90;1.87;;;;;;;17.90;100.00;96247.84;5030178;28;105501;-63
2022/08/04 02:30:43;;;;;;;3.57;2.00;;;;;;;18.05;100.00;96247.56;5019063;28;102304;-63
2022/08/04 02:33:17;;;;;;;2.77;1.77;;;;;;;17.88;100.00;96240.06;5030353;27;105550;-63
2022/08/04 02:35:46;;;;;;;3.50;2.00;;;;;;;17.92;100.00;96245.69;5031603;28;103173;-63
2022/08/04 02:38:22;;;;;;;2.00;1.90;;;;;;;18.12;100.00;96238.00;5030606;28;102205;-63
2022/08/04 02:40:50;;;;;;;2.20;2.10;;;;;;;18.01;100.00;96235.78;5030366;28;105563;-63
2022/08/04 02:43:20;;;;;;;2.20;2.10;;;;;;;17.96;100.00;96233.19;5034469;28;102768;-63
2022/08/04 02:45:49;;;;;;;2.20;2.00;;;;;;;17.98;100.00;96237.19;5032078;28;102554;-63
2022/08/04 02:48:21;;;;;;;2.17;1.97;;;;;;;17.83;100.00;96231.31;5029676;28;105995;-63
2022/08/04 02:50:50;;;;;;;3.23;1.70;;;;;;;18.18;100.00;96241.34;5031794;28;101783;-63
2022/08/04 02:53:21;;;;;;;2.10;2.00;;;;;;;18.12;100.00;96232.59;5030405;27;104997;-63
2022/08/04 02:55:49;;;;;;;2.00;1.80;;;;;;;18.18;100.00;96241.34;5029607;28;105415;-63
2022/08/04 02:58:20;;;;;;;3.23;2.03;;;;;;;17.85;100.00;96231.81;5031909;28;101829;-63
2022/08/04 03:00:50;;;;;;;1.87;1.70;;;;;;;17.96;100.00;96241.28;5030020;28;105413;-63
2022/08/04 03:03:28;;;;;;;2.60;2.07;;;;;;;17.83;100.00;96240.19;5033084;28;104219;-63
2022/08/04 03:06:33;;;;;;;2.07;1.90;;;;;;;17.81;100.00;96241.56;5030282;28;105047;-63
2022/08/04 03:09:40;;;;;;;2.30;2.10;;;;;;;17.97;100.00;96242.84;5030605;28;102000;-63
2022/08/04 03:12:36;;;;;;;2.20;2.00;;;;;;;18.27;100.00;96247.63;5029937;28;101830;-63
2022/08/04 03:15:48;;;;;;;2.70;2.00;;;;;;;18.16;100.00;96244.34;5029751;28;105308;-63
2022/08/04 03:18:51;;;;;;;2.33;2.13;;;;;;;17.72;100.00;96244.16;5030592;28;102928;-63
2022/08/04 03:22:15;;;;;;;2.03;1.93;;;;;;;17.76;100.00;96239.00;5031486;28;101757;-63
2022/08/04 03:25:13;;;;;;;3.43;1.83;;;;;;;18.00;100.00;96240.41;4967519;28;102796;-63
2022/08/04 03:28:24;;;;;;;2.47;2.00;;;;;;;18.07;100.00;96239.97;4968528;28;103276;-63
2022/08/04 03:31:08;;;;;;;2.93;1.80;;;;;;;18.17;100.00;96239.75;5031103;28;101846;-63
2022/08/04 03:33:50;;;;;;;2.17;1.97;;;;;;;17.97;100.00;96240.16;5030722;28;101831;-63
2022/08/04 03:36:38;;;;;;;2.00;1.90;;;;;;;17.89;100.00;96244.38;5029772;28;101978;-63
2022/08/04 03:39:43;;;;;;;2.30;2.10;;;;;;;18.17;100.00;96250.53;5031078;28;102325;-63
2022/08/04 03:42:58;;;;;;;1.80;1.70;;;;;;;18.15;100.00;96248.13;5009823;28;102726;-63
2022/08/04 03:45:54;;;;;;;2.40;2.20;;;;;;;18.02;100.00;96248.13;4967885;28;102039;-63
2022/08/04 03:49:01;;;;;;;2.03;1.83;;;;;;;18.19;100.00;96251.00;5026724;28;105145;-63
2022/08/04 03:55:10;;;;;;;3.20;2.00;;;;;;;17.83;100.00;96255.53;4990861;27;102056;-63
2022/08/04 03:57:54;;;;;;;3.23;2.00;;;;;;;18.11;100.00;96257.13;5013611;27;102505;-64
2022/08/04 04:00:26;;;;;;;3.57;1.90;;;;;;;18.12;100.00;96248.75;5029428;28;101828;-64
2022/08/04 04:03:25;;;;;;;2.87;2.60;;;;;;;18.10;100.00;96252.84;5031142;28;102328;-64
2022/08/04 04:06:23;;;;;;;4.13;2.53;;;;;;;17.53;100.00;96250.72;5008448;28;105408;-64
2022/08/04 04:09:45;;;;;;;2.67;2.20;;;;;;;17.76;100.00;96255.16;5018415;28;102039;-64
2022/08/04 04:12:27;;;;;;;3.00;2.10;;;;;;;17.90;100.00;96253.25;5031000;28;102313;-64
2022/08/04 04:15:26;;;;;;;3.10;1.97;;;;;;;18.00;100.00;96255.72;5030141;28;102593;-63
2022/08/04 04:18:27;;;;;;;2.27;2.10;;;;;;;17.80;100.00;96256.94;5016491;27;101963;-64
2022/08/04 04:21:16;;;;;;;3.73;2.60;;;;;;;17.76;100.00;96261.31;5007536;28;102948;-64
2022/08/04 04:24:02;;;;;;;2.77;2.20;;;;;;;17.86;100.00;96258.41;5011754;28;105858;-64
2022/08/04 04:26:55;;;;;;;2.20;2.00;;;;;;;17.88;100.00;96258.13;5009101;28;106216;-65
2022/08/04 04:29:39;;;;;;;2.40;2.20;;;;;;;17.95;100.00;96264.72;5009808;28;103160;-64
2022/08/04 04:32:22;;;;;;;2.67;2.23;;;;;;;17.99;100.00;96264.91;5010680;28;101733;-65
2022/08/04 04:35:20;;;;;;;2.70;2.50;;;;;;;17.90;100.00;96264.00;5008975;28;105346;-64
2022/08/04 04:38:18;;;;;;;3.37;2.50;;;;;;;17.77;100.00;96272.88;5009660;28;103136;-65
2022/08/04 04:40:55;;;;;;;3.03;2.07;;;;;;;17.77;100.00;96270.19;5008917;28;101887;-65
2022/08/04 04:43:56;;;;;;;2.63;2.30;;;;;;;17.82;100.00;96275.47;5010498;28;101858;-65
2022/08/04 04:46:38;;;;;;;2.80;2.30;;;;;;;17.90;100.00;96277.44;5008190;28;105886;-65
2022/08/04 04:49:15;;;;;;;3.53;2.70;;;;;;;18.13;100.00;96279.94;5013933;28;101831;-65
2022/08/04 04:51:49;;;;;;;3.40;2.67;;;;;;;18.28;100.00;96274.25;5008125;28;105388;-65
2022/08/04 04:54:35;;;;;;;3.30;2.67;;;;;;;18.39;100.00;96280.25;5008721;28;101895;-65
2022/08/04 04:57:16;;;;;;;2.80;2.50;;;;;;;18.57;100.00;96276.59;5011337;28;102625;-64
2022/08/04 04:59:50;;;;;;;2.83;2.50;;;;;;;18.73;100.00;96286.75;5013024;28;102580;-65
2022/08/04 05:02:49;;;;;;;2.47;2.27;;;;;;;18.83;100.00;96277.63;5014039;28;101657;-64
2022/08/04 05:05:34;;;;;;;2.83;2.60;;;;;;;19.12;100.00;96286.13;5013740;28;102916;-64
2022/08/04 05:08:33;;;;;;;3.13;2.83;;;;;;;19.21;100.00;96295.06;5013266;28;102586;-64
2022/08/04 05:11:20;;;;;;;2.53;2.33;;;;;;;19.36;100.00;96289.31;5013745;28;101715;-64
2022/08/04 05:13:52;;;;;;;3.00;2.50;;;;;;;19.50;100.00;96288.13;5014834;28;105396;-65
2022/08/04 05:16:24;;;;;;;2.90;2.50;;;;;;;19.56;100.00;96284.19;5013474;28;101773;-65
2022/08/04 05:19:03;;;;;;;3.20;3.00;;;;;;;19.66;100.00;96278.53;5013504;28;102735;-64
2022/08/04 05:21:45;;;;;;;2.93;2.73;;;;;;;19.70;100.00;96287.63;5011184;28;105553;-66
2022/08/04 05:24:24;;;;;;;3.13;2.77;;;;;;;19.78;100.00;96280.69;5011399;28;101908;-65
2022/08/04 05:27:03;;;;;;;2.50;2.30;;;;;;;20.08;100.00;96274.47;5011872;28;105425;-65
2022/08/04 05:29:34;;;;;;;5.27;2.90;;;;;;;20.27;100.00;96288.50;5012673;28;102595;-65
2022/08/04 05:32:05;;;;;;;4.20;2.60;;;;;;;20.46;100.00;96276.31;5013292;28;101712;-64
2022/08/04 05:35:05;;;;;;;4.73;2.93;;;;;;;20.60;100.00;96282.38;5016190;28;102249;-65
2022/08/04 05:37:34;;;;;;;5.03;2.83;;;;;;;20.76;100.00;96280.03;5011588;28;101983;-65
2022/08/04 05:40:06;;;;;;;3.97;2.83;;;;;;;20.80;100.00;96287.16;5012922;28;102358;-65
2022/08/04 05:42:38;;;;;;;2.80;2.60;;;;;;;20.94;100.00;96287.03;5012551;28;102935;-65
2022/08/04 05:45:10;;;;;;;2.97;2.60;;;;;;;21.12;100.00;96277.81;5011740;28;102047;-65
2022/08/04 05:47:37;;;;;;;2.83;2.40;;;;;;;21.23;100.00;96285.28;5013217;28;102430;-65
2022/08/04 05:50:07;;;;;;;2.93;2.60;;;;;;;21.03;100.00;96285.94;5012193;28;102787;-65
2022/08/04 05:52:37;;;;;;;5.43;2.57;;;;;;;20.86;100.00;96283.19;5012799;28;102059;-65
2022/08/04 05:55:13;;;;;;;3.80;2.67;;;;;;;20.97;100.00;96286.41;5012904;28;102435;-64
2022/08/04 05:57:48;;;;;;;3.13;2.73;;;;;;;20.94;100.00;96273.53;5015697;28;103191;-66
2022/08/04 06:00:18;;;;;;;3.23;2.70;;;;;;;21.21;100.00;96281.31;5011397;28;105061;-64
2022/08/04 06:02:47;;;;;;;2.70;2.50;;;;;;;21.35;100.00;96273.78;5012084;28;103173;-65
2022/08/04 06:05:16;;;;;;;5.07;2.70;;;;;;;21.31;100.00;96273.66;5011198;28;101939;-65
2022/08/04 06:07:44;;;;;;;4.13;2.43;;;;;;;21.40;100.00;96276.34;5010957;28;105644;-64
2022/08/04 06:10:11;;;;;;;3.37;2.80;;;;;;;21.51;100.00;96281.09;5011209;28;102560;-64
2022/08/04 06:12:44;;;;;;;2.93;2.63;;;;;;;21.82;100.00;96287.09;5012661;28;101819;-64
2022/08/04 06:15:18;;;;;;;3.00;2.37;;;;;;;22.12;100.00;96274.41;5011009;28;103799;-64
2022/08/04 06:17:50;;;;;;;2.83;2.30;;;;;;;22.26;100.00;96286.59;5012155;28;103154;-64
2022/08/04 06:20:20;;;;;;;2.43;2.23;;;;;;;22.30;100.00;96284.84;5014438;28;101835;-64
2022/08/04 06:22:52;;;;;;;4.00;2.67;;;;;;;22.34;100.00;96277.63;5011546;28;102566;-64
2022/08/04 06:25:22;;;;;;;2.57;2.37;;;;;;;22.43;100.00;96280.28;5012332;28;101978;-64
2022/08/04 06:27:59;;;;;;;4.33;2.70;;;;;;;22.65;100.00;96278.09;5012230;28;102324;-64
2022/08/04 06:30:31;;;;;;;2.70;2.50;;;;;;;22.83;100.00;96284.22;5010112;28;105536;-64
2022/08/04 06:33:02;;;;;;;3.27;2.77;;;;;;;22.97;100.00;96280.09;5012266;28;101727;-64
2022/08/04 06:35:31;;;;;;;3.73;2.70;;;;;;;23.13;100.00;96288.44;5012406;28;101809;-64
2022/08/04 06:38:00;;;;;;;4.20;2.60;;;;;;;23.20;100.00;96283.28;5010205;28;105298;-64
2022/08/04 06:40:29;;;;;;;3.17;2.63;;;;;;;23.44;100.00;96280.69;5011816;28;101907;-64
2022/08/04 06:42:57;;;;;;;4.10;2.70;;;;;;;23.66;100.00;96274.88;5014857;28;102370;-64
2022/08/04 06:45:25;;;;;;;3.80;2.60;;;;;;;23.54;100.00;96282.97;5047368;27;101938;-64
2022/08/04 06:47:56;;;;;;;2.60;2.40;;;;;;;23.71;100.00;96282.81;5050744;27;105341;-64
2022/08/04 06:50:25;;;;;;;4.20;2.50;;;;;;;23.82;100.00;96286.66;5039339;27;103073;-65
2022/08/04 06:52:54;;;;;;;4.57;3.70;;;;;;;24.09;100.00;96277.91;5030442;28;102144;-64
2022/08/04 06:55:23;;;;;;;7.70;2.93;;;;;;;23.84;100.00;96278.97;5030408;28;105156;-64
2022/08/04 06:57:56;;;;;;;4.67;2.60;;;;;;;24.02;100.00;96291.25;5029637;28;106488;-64
2022/08/04 07:00:25;;;;;;;4.57;3.00;;;;;;;23.98;100.00;96288.41;5040501;27;103371;-64
2022/08/04 07:03:06;;;;;;;6.67;2.77;;;;;;;24.13;100.00;96279.59;5051898;27;101841;-64
2022/08/04 07:05:34;;;;;;;3.03;2.73;;;;;;;24.13;100.00;96292.41;5054790;27;103323;-65
2022/08/04 07:08:02;;;;;;;2.90;2.67;;;;;;;24.09;100.00;96283.34;5051836;27;102917;-64
2022/08/04 07:10:31;;;;;;;3.10;2.33;;;;;;;24.09;100.00;96284.13;5039572;27;102501;-64
2022/08/04 07:13:16;;;;;;;8.63;3.20;;;;;;;24.41;100.00;96280.50;5042350;27;101869;-64
2022/08/04 07:15:46;;;;;;;5.00;2.47;;;;;;;24.47;100.00;96290.03;5049607;27;102323;-62
2022/08/04 07:18:16;;;;;;;3.70;2.23;;;;;;;24.29;100.00;96283.25;5030925;28;102677;-65
2022/08/04 07:20:44;;;;;;;3.17;2.33;;;;;;;24.52;100.00;96283.59;5029862;27;102136;-64
2022/08/04 07:23:16;;;;;;;6.90;2.73;;;;;;;24.28;100.00;96280.84;5030894;28;102508;-64
2022/08/04 07:25:44;;;;;;;7.37;2.80;;;;;;;24.75;100.00;96276.56;5029230;28;105518;-65
2022/08/04 07:31:34;;;;;;;4.80;2.70;;;;;;;25.26;100.00;96278.47;5031116;27;103000;-64
2022/08/04 07:34:04;;;;;;;3.10;2.43;;;;;;;25.42;100.00;96277.41;5028989;27;101967;-64
2022/08/04 07:36:31;;;;;;;2.83;2.50;;;;;;;25.59;100.00;96273.56;5030787;27;102332;-64
2022/08/04 07:38:58;;;;;;;2.53;2.33;;;;;;;25.72;100.00;96277.81;5029917;28;102775;-65
2022/08/04 07:41:25;;;;;;;2.73;2.50;;;;;;;25.90;100.00;96276.34;5030189;27;101981;-65
2022/08/04 07:43:54;;;;;;;3.70;2.30;;;;;;;26.14;100.00;96284.38;5044411;27;105586;-65
2022/08/04 07:46:21;;;;;;;5.57;2.50;;;;;;;25.96;100.00;96274.97;5043474;27;103462;-66
2022/08/04 07:48:49;;;;;;;2.87;2.10;;;;;;;26.38;100.00;96273.31;5033739;27;102046;-66
2022/08/04 07:51:18;;;;;;;3.13;2.40;;;;;;;26.28;100.00;96274.63;5030923;27;103160;-66
2022/08/04 07:53:46;;;;;;;2.40;2.20;;;;;;;26.44;100.00;96274.59;5030164;27;101860;-66
2022/08/04 07:56:16;;;;;;;3.00;2.60;;;;;;;26.67;100.00;96270.09;5031566;27;102335;-66
2022/08/04 07:58:43;;;;;;;2.40;2.20;;;;;;;26.79;100.00;96273.50;5027704;28;105409;-66
2022/08/04 08:01:11;;;;;;;2.50;2.30;;;;;;;26.97;100.00;96271.19;5034802;27;103644;-66
2022/08/04 08:03:39;;;;;;;3.70;2.30;;;;;;;26.93;100.00;96278.50;5048954;27;105309;-65
2022/08/04 08:06:06;;;;;;;2.40;2.20;;;;;;;27.15;100.00;96272.34;5046572;27;105589;-65
2022/08/04 08:08:38;;;;;;;2.53;2.33;;;;;;;27.17;100.00;96270.88;5048949;27;102016;-64
2022/08/04 08:11:06;;;;;;;3.07;2.60;;;;;;;27.34;100.00;96275.88;5048802;27;102320;-65
2022/08/04 08:13:34;;;;;;;2.30;2.10;;;;;;;27.34;100.00;96269.63;5028655;28;102021;-66
2022/08/04 08:16:01;;;;;;;2.40;2.20;;;;;;;27.36;100.00;96270.84;5029813;27;102432;-65
2022/08/04 08:18:29;;;;;;;2.50;2.30;;;;;;;27.61;100.00;96271.34;5029273;28;102602;-65
2022/08/04 08:20:56;;;;;;;3.43;2.50;;;;;;;27.57;100.00;96267.78;5029674;27;102099;-65
2022/08/04 08:23:24;;;;;;;2.50;2.30;;;;;;;27.30;100.00;96261.38;5029444;27;104780;-65
2022/08/04 08:25:54;;;;;;;2.40;2.20;;;;;;;27.38;100.00;96268.56;5027276;27;105886;-65
2022/08/04 08:28:21;;;;;;;3.33;2.27;;;;;;;27.73;100.00;96265.72;5028409;27;101956;-66
2022/08/04 08:30:48;;;;;;;2.10;2.00;;;;;;;27.80;100.00;96260.41;5032629;27;102334;-65
2022/08/04 08:33:16;;;;;;;3.60;2.20;;;;;;;27.90;100.00;96263.31;5052432;27;103269;-64
2022/08/04 08:35:51;;;;;;;2.20;2.10;;;;;;;27.30;100.00;96263.31;5049689;27;102346;-66
2022/08/04 08:38:25;;;;;;;3.20;2.20;;;;;;;28.00;100.00;96267.44;5048031;27;105444;-65
2022/08/04 08:41:06;;;;;;;2.50;2.30;;;;;;;28.07;100.00;96262.06;5036809;27;101866;-64
2022/08/04 08:43:45;;;;;;;3.33;2.30;;;;;;;28.55;100.00;96267.56;5050160;27;102338;-65
2022/08/04 08:46:35;;;;;;;3.70;2.30;;;;;;;28.65;100.00;96272.41;5046744;27;105927;-65
2022/08/04 08:49:18;;;;;;;3.40;2.20;;;;;;;28.98;100.00;96272.53;5028010;28;101937;-65
2022/08/04 08:52:12;;;;;;;3.43;2.10;;;;;;;28.70;100.00;96269.38;5036466;27;105055;-66
2022/08/04 08:54:54;;;;;;;5.10;2.37;;;;;;;28.85;100.00;96270.34;5041119;27;103302;-65
2022/08/04 08:57:56;;;;;;;3.10;2.10;;;;;;;29.09;97.96;96268.00;5053823;27;101791;-65
2022/08/04 09:00:34;;;;;;;2.80;2.27;;;;;;;29.08;94.62;96277.38;5041561;27;105887;-66
2022/08/04 09:03:32;;;;;;;4.63;2.10;;;;;;;28.79;97.92;96269.91;5031676;27;101894;-65
2022/08/04 09:06:24;;;;;;;2.72;2.10;;;;;;;29.25;96.94;96265.84;5047586;27;103504;-64
2022/08/04 09:09:06;;;;;;;6.95;2.20;;;;;;;29.61;99.30;96272.56;5028739;27;103085;-64
2022/08/04 09:11:42;;;;;;;3.37;2.00;;;;;;;30.03;100.00;96273.78;5034127;27;102060;-72
2022/08/04 09:14:21;;;;;;;2.80;2.20;;;;;;;29.98;94.81;96273.38;5047183;27;102361;-64
2022/08/04 09:16:54;;;;;;;5.45;2.25;;;;;;;30.28;91.84;96274.84;5026764;27;105871;-64
2022/08/04 09:19:28;;;;;;;3.13;2.38;;;;;;;29.85;86.30;96270.09;5030171;27;101779;-64
2022/08/04 09:22:02;;;;;;;3.28;2.00;;;;;;;30.29;92.20;96270.16;5041508;27;103999;-63
2022/08/04 09:24:38;;;;;;;2.28;2.13;;;;;;;30.64;89.06;96279.47;5041697;27;101908;-64
2022/08/04 09:27:13;;;;;;;2.67;2.00;;;;;;;30.73;76.16;96274.44;5029077;27;102894;-64
2022/08/04 09:29:52;;;;;;;3.33;2.17;;;;;;;30.98;75.64;96274.59;5027961;27;105354;-64
2022/08/04 09:32:29;;;;;;;2.75;2.20;;;;;;;30.62;79.57;96275.53;5041937;27;101837;-64
2022/08/04 09:35:13;;;;;;;5.47;2.20;;;;;;;30.09;79.65;96266.81;5045587;27;106039;-64
2022/08/04 09:37:46;;;;;;;3.50;2.08;;;;;;;30.30;77.19;96269.00;5033451;27;102642;-66
2022/08/04 09:40:24;;;;;;;2.75;2.30;;;;;;;30.37;83.36;96260.81;5028785;27;101968;-63
2022/08/04 09:43:03;;;;;;;3.00;2.13;;;;;;;30.64;81.13;96273.16;5039269;27;102288;-64
2022/08/04 09:45:38;;;;;;;2.75;1.92;;;;;;;29.85;65.81;96269.31;5035600;27;101755;-63
2022/08/04 09:48:10;;;;;;;2.30;2.10;;;;;;;30.89;65.97;96268.69;5032101;27;102794;-62
2022/08/04 09:50:39;;;;;;;2.33;2.13;;;;;;;31.71;59.17;96265.94;5030154;27;105488;-64
2022/08/04 09:53:18;;;;;;;4.45;2.10;;;;;;;31.89;54.68;96259.34;5045746;27;101801;-63
2022/08/04 09:55:55;;;;;;;3.00;2.47;;;;;;;31.76;53.78;96260.09;5048704;27;102512;-63
2022/08/04 09:58:39;;;;;;;3.78;2.13;;;;;;;31.89;55.13;96255.78;5031997;28;103072;-63
2022/08/04 10:01:12;;;;;;;2.38;2.10;;;;;;;31.19;56.24;96258.22;5036222;27;101950;-64
2022/08/04 10:03:43;;;;;;;3.42;2.05;;;;;;;31.60;54.34;96254.13;5051875;27;102336;-63
2022/08/04 10:06:44;;;;;;;2.20;2.00;;;;;;;31.70;52.92;96256.09;5043317;27;105384;-63
2022/08/04 10:09:31;;;;;;;2.10;2.00;;;;;;;31.98;53.99;96256.19;5011004;28;102449;-63
2022/08/04 10:12:26;;;;;;;2.17;1.98;;;;;;;32.29;49.88;96250.75;5027518;27;103436;-64
2022/08/04 10:15:14;;;;;;;2.03;1.80;;;;;;;32.55;49.00;96257.81;5031868;28;101726;-63
2022/08/04 10:18:09;;;;;;;4.32;1.80;;;;;;;32.32;51.36;96251.94;5035747;27;103904;-69
2022/08/04 10:21:01;;;;;;;1.90;1.80;;;;;;;33.07;48.31;96251.47;5050656;27;102776;-67
2022/08/04 10:23:38;;;;;;;2.60;1.92;;;;;;;32.58;48.05;96251.53;5048645;27;101871;-64
2022/08/04 10:26:22;;;;;;;3.85;2.00;;;;;;;32.89;46.80;96256.22;5041857;27;102437;-67
2022/08/04 10:28:55;;;;;;;3.05;2.10;;;;;;;33.16;48.98;96249.06;5030076;27;105465;-64
2022/08/04 10:31:34;;;;;;;2.35;2.10;;;;;;;33.21;47.55;96249.47;5035319;28;101707;-64
2022/08/04 10:34:11;;;;;;;3.03;2.10;;;;;;;32.83;46.10;96244.84;5046477;27;102632;-64
2022/08/04 10:36:47;;;;;;;2.08;1.75;;;;;;;33.30;48.77;96243.53;5050575;27;101737;-64
2022/08/04 10:39:18;;;;;;;2.10;1.90;;;;;;;33.82;49.08;96237.78;5040415;27;102556;-64
2022/08/04 10:41:54;;;;;;;1.90;1.80;;;;;;;34.06;46.63;96242.34;5030478;28;102610;-64
2022/08/04 10:44:32;;;;;;;4.60;2.00;;;;;;;33.92;47.01;96233.41;5031576;28;101717;-64
2022/08/04 10:47:04;;;;;;;1.92;1.83;;;;;;;34.36;45.49;96239.00;5033102;27;105694;-64
2022/08/04 10:49:37;;;;;;;2.60;2.40;;;;;;;32.89;44.59;96239.69;5049175;27;105357;-64
2022/08/04 10:52:08;;;;;;;2.40;2.13;;;;;;;33.71;46.40;96236.25;5031289;27;102302;-63
2022/08/04 10:54:48;;;;;;;2.30;2.00;;;;;;;33.34;47.31;96228.56;5032429;27;103789;-63
2022/08/04 10:57:23;;;;;;;2.83;2.38;;;;;;;33.33;43.46;96226.19;5029534;27;102477;-63
2022/08/04 10:59:59;;;;;;;3.80;2.28;;;;;;;32.49;46.55;96232.66;5045232;27;105615;-63
2022/08/04 11:02:36;;;;;;;2.17;1.98;;;;;;;33.43;45.81;96230.88;5032850;27;106192;-63
2022/08/04 11:05:14;;;;;;;2.10;1.88;;;;;;;33.04;46.16;96225.50;5051211;27;102198;-63
2022/08/04 11:07:44;;;;;;;2.20;2.00;;;;;;;33.95;45.02;96224.31;5050624;27;102334;-63
2022/08/04 11:10:13;;;;;;;4.25;2.20;;;;;;;33.94;45.92;96226.28;5045917;27;104119;-63
2022/08/04 11:12:44;;;;;;;2.10;1.90;;;;;;;33.24;45.50;96228.56;5037784;27;101865;-63
2022/08/04 11:15:17;;;;;;;2.83;1.90;;;;;;;33.47;41.10;96231.66;5049493;27;105077;-63
2022/08/04 11:17:50;;;;;;;2.25;2.00;;;;;;;33.85;41.65;96225.16;5013706;28;102698;-63
2022/08/04 11:20:29;;;;;;;2.78;2.00;;;;;;;33.43;47.88;96222.59;5029292;27;105156;-63
2022/08/04 11:23:03;;;;;;;2.08;1.98;;;;;;;33.19;45.15;96224.25;5045575;27;103030;-64
2022/08/04 11:25:42;;;;;;;2.15;2.00;;;;;;;33.55;42.47;96222.16;5049073;27;101881;-64
2022/08/04 11:28:14;;;;;;;2.38;1.60;;;;;;;32.79;41.50;96219.25;5050676;27;102456;-62
2022/08/04 11:30:53;;;;;;;4.57;2.00;;;;;;;33.10;42.22;96225.84;5046873;27;105712;-64
2022/08/04 11:33:27;;;;;;;2.17;1.70;;;;;;;32.69;41.58;96220.03;5049539;27;102469;-64
2022/08/04 11:36:08;;;;;;;1.83;1.73;;;;;;;33.30;38.93;96224.25;5038243;27;103439;-64
2022/08/04 11:38:44;;;;;;;1.70;1.60;;;;;;;33.67;40.21;96224.47;5029936;28;103193;-65
2022/08/04 11:41:17;;;;;;;2.35;1.80;;;;;;;33.88;41.41;96227.13;5046454;27;103704;-65
2022/08/04 11:43:51;;;;;;;2.38;1.80;;;;;;;33.98;39.37;96223.50;5045487;27;102524;-64
2022/08/04 11:46:25;;;;;;;3.75;1.85;;;;;;;33.20;39.89;96217.56;5030144;27;102259;-63
2022/08/04 11:48:58;;;;;;;2.75;1.75;;;;;;;33.59;40.26;96211.88;5030214;27;102863;-64
2022/08/04 11:51:29;;;;;;;1.90;1.80;;;;;;;33.10;41.57;96223.91;5030600;27;104298;-64
2022/08/04 11:53:58;;;;;;;3.28;2.20;;;;;;;33.46;41.60;96217.06;5029913;27;101794;-64
2022/08/04 11:56:25;;;;;;;1.70;1.60;;;;;;;33.54;42.22;96220.56;5039366;27;105243;-63
2022/08/04 11:58:52;;;;;;;1.90;1.80;;;;;;;34.51;41.72;96215.63;5029571;28;102725;-64
2022/08/04 12:01:28;;;;;;;1.75;1.65;;;;;;;33.73;39.43;96209.06;5034855;27;102575;-64
2022/08/04 12:04:05;;;;;;;1.70;1.63;;;;;;;33.73;38.59;96207.06;5029352;27;102700;-64
2022/08/04 12:06:42;;;;;;;1.90;1.80;;;;;;;34.29;41.98;96200.41;5029401;27;101976;-64
2022/08/04 12:09:18;;;;;;;2.00;1.90;;;;;;;34.25;37.45;96210.66;5028779;28;103552;-64
2022/08/04 12:11:56;;;;;;;3.08;1.80;;;;;;;34.41;39.11;96203.47;5034575;27;102963;-64
2022/08/04 12:14:34;;;;;;;1.98;1.80;;;;;;;34.40;39.61;96201.13;5031513;27;102242;-64